sensor_id;sensor_type;location;lat;lon;timestamp;temperature;humidity
17728;DHT22;8984;49.268;12.302;2023-02-28T00:01:06;-0.50;99.90
17728;DHT22;8984;49.268;12.302;2023-02-28T00:03:34;-0.50;99.90
17728;DHT22;8984;49.268;12.302;2023-02-28T00:06:02;-0.40;99.90
17728;DHT22;8984;49.268;12.302;2023-02-28T00:08:29;-0.40;99.90
17728;DHT22;8984;49.268;12.302;2023-02-28T00:10:55;-0.30;99.90
17728;DHT22;8984;49.268;12.302;2023-02-28T00:13:22;-0.30;99.90
17728;DHT22;8984;49.268;12.302;2023-02-28T00:15:58;-0.40;99.90
17728;DHT22;8984;49.268;12.302;2023-02-28T00:18:25;-0.40;99.90
17728;DHT22;8984;49.268;12.302;2023-02-28T00:20:53;-0.50;99.90
17728;DHT22;8984;49.268;12.302;2023-02-28T00:23:20;-0.40;99.90
17728;DHT22;8984;49.268;12.302;2023-02-28T00:25:47;-0.40;99.90
17728;DHT22;8984;49.268;12.302;2023-02-28T00:28:14;-0.40;99.90
17728;DHT22;8984;49.268;12.302;2023-02-28T00:30:40;-0.40;99.90
17728;DHT22;8984;49.268;12.302;2023-02-28T00:33:07;-0.40;99.90
17728;DHT22;8984;49.268;12.302;2023-02-28T00:35:34;-0.50;99.90
17728;DHT22;8984;49.268;12.302;2023-02-28T00:38:02;-0.60;99.90
17728;DHT22;8984;49.268;12.302;2023-02-28T00:40:29;-0.60;99.90
17728;DHT22;8984;49.268;12.302;2023-02-28T00:42:57;-0.60;99.90
17728;DHT22;8984;49.268;12.302;2023-02-28T00:45:24;-0.70;99.90
17728;DHT22;8984;49.268;12.302;2023-02-28T00:47:50;-0.70;99.90
17728;DHT22;8984;49.268;12.302;2023-02-28T00:50:17;-0.70;99.90
17728;DHT22;8984;49.268;12.302;2023-02-28T00:52:44;-0.60;99.90
17728;DHT22;8984;49.268;12.302;2023-02-28T00:55:13;-0.50;99.90
17728;DHT22;8984;49.268;12.302;2023-02-28T00:57:39;-0.70;99.90
17728;DHT22;8984;49.268;12.302;2023-02-28T01:00:07;-0.60;99.90
17728;DHT22;8984;49.268;12.302;2023-02-28T01:02:34;-0.50;99.90
17728;DHT22;8984;49.268;12.302;2023-02-28T01:05:01;-0.50;99.90
17728;DHT22;8984;49.268;12.302;2023-02-28T01:07:28;-0.50;99.90
17728;DHT22;8984;49.268;12.302;2023-02-28T01:09:55;-0.40;99.90
17728;DHT22;8984;49.268;12.302;2023-02-28T01:12:23;-0.50;99.90
17728;DHT22;8984;49.268;12.302;2023-02-28T01:14:50;-0.40;99.90
17728;DHT22;8984;49.268;12.302;2023-02-28T01:17:17;-0.50;99.90
17728;DHT22;8984;49.268;12.302;2023-02-28T01:19:43;-0.50;99.90
17728;DHT22;8984;49.268;12.302;2023-02-28T01:22:10;-0.50;99.90
17728;DHT22;8984;49.268;12.302;2023-02-28T01:24:37;-0.70;99.90
17728;DHT22;8984;49.268;12.302;2023-02-28T01:27:04;-0.60;99.90
17728;DHT22;8984;49.268;12.302;2023-02-28T01:29:32;-0.50;99.90
17728;DHT22;8984;49.268;12.302;2023-02-28T01:31:59;-0.60;99.90
17728;DHT22;8984;49.268;12.302;2023-02-28T01:34:26;-0.70;99.90
17728;DHT22;8984;49.268;12.302;2023-02-28T01:36:52;-0.60;99.90
17728;DHT22;8984;49.268;12.302;2023-02-28T01:39:20;-0.80;99.90
17728;DHT22;8984;49.268;12.302;2023-02-28T01:41:47;-0.80;99.90
17728;DHT22;8984;49.268;12.302;2023-02-28T01:47:20;-0.70;99.90
17728;DHT22;8984;49.268;12.302;2023-02-28T01:49:47;-0.70;99.90
17728;DHT22;8984;49.268;12.302;2023-02-28T01:52:15;-0.80;99.90
17728;DHT22;8984;49.268;12.302;2023-02-28T01:54:46;-0.70;99.90
17728;DHT22;8984;49.268;12.302;2023-02-28T01:57:18;-0.70;99.90
17728;DHT22;8984;49.268;12.302;2023-02-28T01:59:50;-0.70;99.90
17728;DHT22;8984;49.268;12.302;2023-02-28T02:02:22;-0.80;99.90
17728;DHT22;8984;49.268;12.302;2023-02-28T02:04:54;-0.70;99.90
17728;DHT22;8984;49.268;12.302;2023-02-28T02:07:21;-0.60;99.90
17728;DHT22;8984;49.268;12.302;2023-02-28T02:09:49;-0.70;99.90
17728;DHT22;8984;49.268;12.302;2023-02-28T02:12:27;-0.70;99.90
17728;DHT22;8984;49.268;12.302;2023-02-28T02:15:02;-0.70;99.90
17728;DHT22;8984;49.268;12.302;2023-02-28T02:17:36;-0.60;99.90
17728;DHT22;8984;49.268;12.302;2023-02-28T02:20:27;-0.70;99.90
17728;DHT22;8984;49.268;12.302;2023-02-28T02:23:20;-0.60;99.90
17728;DHT22;8984;49.268;12.302;2023-02-28T02:25:55;-0.60;99.90
17728;DHT22;8984;49.268;12.302;2023-02-28T02:28:56;-0.50;99.90
17728;DHT22;8984;49.268;12.302;2023-02-28T02:31:43;-0.50;99.90
17728;DHT22;8984;49.268;12.302;2023-02-28T02:37:21;-0.60;99.90
17728;DHT22;8984;49.268;12.302;2023-02-28T02:39:53;-0.50;99.90
17728;DHT22;8984;49.268;12.302;2023-02-28T02:42:24;-0.50;99.90
17728;DHT22;8984;49.268;12.302;2023-02-28T02:44:59;-0.60;99.90
17728;DHT22;8984;49.268;12.302;2023-02-28T02:47:29;-0.50;99.90
17728;DHT22;8984;49.268;12.302;2023-02-28T02:50:02;-0.50;99.90
17728;DHT22;8984;49.268;12.302;2023-02-28T02:52:36;-0.50;99.90
17728;DHT22;8984;49.268;12.302;2023-02-28T02:55:07;-0.50;99.90
17728;DHT22;8984;49.268;12.302;2023-02-28T02:57:40;-0.50;99.90
17728;DHT22;8984;49.268;12.302;2023-02-28T03:00:11;-0.50;99.90
17728;DHT22;8984;49.268;12.302;2023-02-28T03:02:40;-0.40;99.90
17728;DHT22;8984;49.268;12.302;2023-02-28T03:05:18;-0.50;99.90
17728;DHT22;8984;49.268;12.302;2023-02-28T03:07:46;-0.50;99.90
17728;DHT22;8984;49.268;12.302;2023-02-28T03:10:32;-0.60;99.90
17728;DHT22;8984;49.268;12.302;2023-02-28T03:13:11;-0.60;99.90
17728;DHT22;8984;49.268;12.302;2023-02-28T03:15:52;-0.60;99.90
17728;DHT22;8984;49.268;12.302;2023-02-28T03:18:24;-0.60;99.90
17728;DHT22;8984;49.268;12.302;2023-02-28T03:21:01;-0.60;99.90
17728;DHT22;8984;49.268;12.302;2023-02-28T03:23:38;-0.60;99.90
17728;DHT22;8984;49.268;12.302;2023-02-28T03:26:11;-0.40;99.90
17728;DHT22;8984;49.268;12.302;2023-02-28T03:28:42;-0.60;99.90
17728;DHT22;8984;49.268;12.302;2023-02-28T03:31:16;-0.60;99.90
17728;DHT22;8984;49.268;12.302;2023-02-28T03:33:48;-0.50;99.90
17728;DHT22;8984;49.268;12.302;2023-02-28T03:36:25;-0.50;99.90
17728;DHT22;8984;49.268;12.302;2023-02-28T03:38:57;-0.50;99.90
17728;DHT22;8984;49.268;12.302;2023-02-28T03:41:31;-0.50;99.90
17728;DHT22;8984;49.268;12.302;2023-02-28T03:44:02;-0.50;99.90
17728;DHT22;8984;49.268;12.302;2023-02-28T03:46:34;-0.50;99.90
17728;DHT22;8984;49.268;12.302;2023-02-28T03:49:07;-0.50;99.90
17728;DHT22;8984;49.268;12.302;2023-02-28T03:51:40;-0.50;99.90
17728;DHT22;8984;49.268;12.302;2023-02-28T03:54:11;-0.50;99.90
17728;DHT22;8984;49.268;12.302;2023-02-28T03:56:42;-0.60;99.90
17728;DHT22;8984;49.268;12.302;2023-02-28T03:59:13;-0.60;99.90
17728;DHT22;8984;49.268;12.302;2023-02-28T04:01:44;-0.60;99.90
17728;DHT22;8984;49.268;12.302;2023-02-28T04:04:12;-0.60;99.90
17728;DHT22;8984;49.268;12.302;2023-02-28T04:06:42;-0.60;99.90
17728;DHT22;8984;49.268;12.302;2023-02-28T04:09:11;-0.60;99.90
17728;DHT22;8984;49.268;12.302;2023-02-28T04:11:40;-0.70;99.90
17728;DHT22;8984;49.268;12.302;2023-02-28T04:14:08;-0.70;99.90
17728;DHT22;8984;49.268;12.302;2023-02-28T04:16:38;-0.70;99.90
17728;DHT22;8984;49.268;12.302;2023-02-28T04:19:06;-0.70;99.90
17728;DHT22;8984;49.268;12.302;2023-02-28T04:21:35;-0.70;99.90
17728;DHT22;8984;49.268;12.302;2023-02-28T04:24:04;-0.70;99.90
17728;DHT22;8984;49.268;12.302;2023-02-28T04:26:32;-0.70;99.90
17728;DHT22;8984;49.268;12.302;2023-02-28T04:29:00;-0.80;99.90
17728;DHT22;8984;49.268;12.302;2023-02-28T04:31:26;-0.80;99.90
17728;DHT22;8984;49.268;12.302;2023-02-28T04:33:53;-0.80;99.90
17728;DHT22;8984;49.268;12.302;2023-02-28T04:36:20;-0.90;99.90
17728;DHT22;8984;49.268;12.302;2023-02-28T04:38:49;-0.90;99.90
17728;DHT22;8984;49.268;12.302;2023-02-28T04:41:17;-0.90;99.90
17728;DHT22;8984;49.268;12.302;2023-02-28T04:43:44;-0.90;99.90
17728;DHT22;8984;49.268;12.302;2023-02-28T04:46:11;-0.90;99.90
17728;DHT22;8984;49.268;12.302;2023-02-28T04:48:39;-0.90;99.90
17728;DHT22;8984;49.268;12.302;2023-02-28T04:51:08;-0.80;99.90
17728;DHT22;8984;49.268;12.302;2023-02-28T04:53:35;-0.80;99.90
17728;DHT22;8984;49.268;12.302;2023-02-28T04:56:02;-0.90;99.90
17728;DHT22;8984;49.268;12.302;2023-02-28T04:58:30;-0.90;99.90
17728;DHT22;8984;49.268;12.302;2023-02-28T05:01:02;-0.80;99.90
17728;DHT22;8984;49.268;12.302;2023-02-28T05:03:29;-0.80;99.90
17728;DHT22;8984;49.268;12.302;2023-02-28T05:05:56;-0.80;99.90
17728;DHT22;8984;49.268;12.302;2023-02-28T05:08:22;-0.80;99.90
17728;DHT22;8984;49.268;12.302;2023-02-28T05:10:50;-0.80;99.90
17728;DHT22;8984;49.268;12.302;2023-02-28T05:13:17;-0.80;99.90
17728;DHT22;8984;49.268;12.302;2023-02-28T05:15:45;-0.80;99.90
17728;DHT22;8984;49.268;12.302;2023-02-28T05:18:12;-0.80;99.90
17728;DHT22;8984;49.268;12.302;2023-02-28T05:20:40;-0.80;99.90
17728;DHT22;8984;49.268;12.302;2023-02-28T05:23:08;-0.90;99.90
17728;DHT22;8984;49.268;12.302;2023-02-28T05:25:38;-0.90;99.90
17728;DHT22;8984;49.268;12.302;2023-02-28T05:28:05;-0.90;99.90
17728;DHT22;8984;49.268;12.302;2023-02-28T05:30:32;-0.80;99.90
17728;DHT22;8984;49.268;12.302;2023-02-28T05:33:01;-0.90;99.90
17728;DHT22;8984;49.268;12.302;2023-02-28T05:35:27;-0.80;99.90
17728;DHT22;8984;49.268;12.302;2023-02-28T05:37:54;-0.80;99.90
17728;DHT22;8984;49.268;12.302;2023-02-28T05:40:21;-0.80;99.90
17728;DHT22;8984;49.268;12.302;2023-02-28T05:42:50;-0.90;99.90
17728;DHT22;8984;49.268;12.302;2023-02-28T05:45:17;-0.80;99.90
17728;DHT22;8984;49.268;12.302;2023-02-28T05:47:44;-0.80;99.90
17728;DHT22;8984;49.268;12.302;2023-02-28T05:50:12;-0.80;99.90
17728;DHT22;8984;49.268;12.302;2023-02-28T05:52:39;-0.80;99.90
17728;DHT22;8984;49.268;12.302;2023-02-28T05:55:06;-0.80;99.90
17728;DHT22;8984;49.268;12.302;2023-02-28T05:57:33;-0.80;99.90
17728;DHT22;8984;49.268;12.302;2023-02-28T06:00:00;-0.70;99.90
17728;DHT22;8984;49.268;12.302;2023-02-28T06:02:27;-0.70;99.90
17728;DHT22;8984;49.268;12.302;2023-02-28T06:04:54;-0.70;99.90
17728;DHT22;8984;49.268;12.302;2023-02-28T06:07:22;-0.70;99.90
17728;DHT22;8984;49.268;12.302;2023-02-28T06:09:49;-0.60;99.90
17728;DHT22;8984;49.268;12.302;2023-02-28T06:12:16;-0.50;99.90
17728;DHT22;8984;49.268;12.302;2023-02-28T06:14:43;-0.50;99.90
17728;DHT22;8984;49.268;12.302;2023-02-28T06:17:10;-0.50;99.90
17728;DHT22;8984;49.268;12.302;2023-02-28T06:19:38;-0.40;99.90
17728;DHT22;8984;49.268;12.302;2023-02-28T06:22:06;-0.40;99.90
17728;DHT22;8984;49.268;12.302;2023-02-28T06:24:35;-0.30;99.90
17728;DHT22;8984;49.268;12.302;2023-02-28T06:27:01;-0.10;99.90
17728;DHT22;8984;49.268;12.302;2023-02-28T06:29:30;0.10;99.90
17728;DHT22;8984;49.268;12.302;2023-02-28T06:31:57;0.20;99.90
17728;DHT22;8984;49.268;12.302;2023-02-28T06:34:24;0.60;99.90
17728;DHT22;8984;49.268;12.302;2023-02-28T06:36:51;0.60;99.90
17728;DHT22;8984;49.268;12.302;2023-02-28T06:39:19;0.80;99.90
17728;DHT22;8984;49.268;12.302;2023-02-28T06:41:47;0.90;99.90
17728;DHT22;8984;49.268;12.302;2023-02-28T06:44:15;1.00;99.90
17728;DHT22;8984;49.268;12.302;2023-02-28T06:46:44;1.00;99.90
17728;DHT22;8984;49.268;12.302;2023-02-28T06:49:11;1.10;99.90
17728;DHT22;8984;49.268;12.302;2023-02-28T06:51:41;1.10;99.90
17728;DHT22;8984;49.268;12.302;2023-02-28T06:54:11;1.10;99.90
17728;DHT22;8984;49.268;12.302;2023-02-28T06:56:37;1.20;99.90
17728;DHT22;8984;49.268;12.302;2023-02-28T06:59:06;1.20;99.90
17728;DHT22;8984;49.268;12.302;2023-02-28T07:01:33;1.20;99.90
17728;DHT22;8984;49.268;12.302;2023-02-28T07:04:00;1.10;99.90
17728;DHT22;8984;49.268;12.302;2023-02-28T07:06:27;1.20;99.90
17728;DHT22;8984;49.268;12.302;2023-02-28T07:08:54;1.10;99.90
17728;DHT22;8984;49.268;12.302;2023-02-28T07:11:22;0.90;99.90
17728;DHT22;8984;49.268;12.302;2023-02-28T07:13:51;1.20;99.90
17728;DHT22;8984;49.268;12.302;2023-02-28T07:16:19;1.10;99.90
17728;DHT22;8984;49.268;12.302;2023-02-28T07:18:46;1.10;99.90
17728;DHT22;8984;49.268;12.302;2023-02-28T07:21:13;1.20;99.90
17728;DHT22;8984;49.268;12.302;2023-02-28T07:23:39;1.30;99.90
17728;DHT22;8984;49.268;12.302;2023-02-28T07:26:09;1.30;99.90
17728;DHT22;8984;49.268;12.302;2023-02-28T07:28:38;1.30;99.90
17728;DHT22;8984;49.268;12.302;2023-02-28T07:31:05;1.40;99.90
17728;DHT22;8984;49.268;12.302;2023-02-28T07:33:34;1.50;99.90
17728;DHT22;8984;49.268;12.302;2023-02-28T07:36:01;1.60;99.90
17728;DHT22;8984;49.268;12.302;2023-02-28T07:38:28;1.60;99.90
17728;DHT22;8984;49.268;12.302;2023-02-28T07:40:55;1.80;99.90
17728;DHT22;8984;49.268;12.302;2023-02-28T07:43:22;1.90;99.90
17728;DHT22;8984;49.268;12.302;2023-02-28T07:45:49;2.00;99.90
17728;DHT22;8984;49.268;12.302;2023-02-28T07:48:15;2.10;99.90
17728;DHT22;8984;49.268;12.302;2023-02-28T07:50:43;1.90;99.90
17728;DHT22;8984;49.268;12.302;2023-02-28T07:53:13;1.80;99.90
17728;DHT22;8984;49.268;12.302;2023-02-28T07:55:40;1.90;99.90
17728;DHT22;8984;49.268;12.302;2023-02-28T07:58:07;1.90;99.90
17728;DHT22;8984;49.268;12.302;2023-02-28T08:00:33;1.80;99.90
17728;DHT22;8984;49.268;12.302;2023-02-28T08:03:00;1.80;99.90
17728;DHT22;8984;49.268;12.302;2023-02-28T08:05:27;1.90;99.90
17728;DHT22;8984;49.268;12.302;2023-02-28T08:07:56;2.00;99.90
17728;DHT22;8984;49.268;12.302;2023-02-28T08:10:23;2.00;99.90
17728;DHT22;8984;49.268;12.302;2023-02-28T08:12:50;1.80;99.90
17728;DHT22;8984;49.268;12.302;2023-02-28T08:15:17;1.80;99.90
17728;DHT22;8984;49.268;12.302;2023-02-28T08:17:44;2.00;99.90
17728;DHT22;8984;49.268;12.302;2023-02-28T08:20:11;2.00;99.90
17728;DHT22;8984;49.268;12.302;2023-02-28T08:22:38;2.10;99.90
17728;DHT22;8984;49.268;12.302;2023-02-28T08:25:08;2.20;99.90
17728;DHT22;8984;49.268;12.302;2023-02-28T08:27:35;2.30;99.90
17728;DHT22;8984;49.268;12.302;2023-02-28T08:30:02;2.10;99.90
17728;DHT22;8984;49.268;12.302;2023-02-28T08:32:29;2.30;99.90
17728;DHT22;8984;49.268;12.302;2023-02-28T08:34:56;2.40;99.90
17728;DHT22;8984;49.268;12.302;2023-02-28T08:37:23;2.50;99.90
17728;DHT22;8984;49.268;12.302;2023-02-28T08:39:49;2.50;99.90
17728;DHT22;8984;49.268;12.302;2023-02-28T08:42:18;2.40;99.90
17728;DHT22;8984;49.268;12.302;2023-02-28T08:44:44;2.60;99.90
17728;DHT22;8984;49.268;12.302;2023-02-28T08:47:11;2.80;99.90
17728;DHT22;8984;49.268;12.302;2023-02-28T08:49:38;2.50;99.90
17728;DHT22;8984;49.268;12.302;2023-02-28T08:52:04;2.70;99.90
17728;DHT22;8984;49.268;12.302;2023-02-28T08:54:31;2.70;99.90
17728;DHT22;8984;49.268;12.302;2023-02-28T08:56:59;2.60;99.90
17728;DHT22;8984;49.268;12.302;2023-02-28T08:59:27;2.70;99.90
17728;DHT22;8984;49.268;12.302;2023-02-28T09:01:54;2.80;99.90
17728;DHT22;8984;49.268;12.302;2023-02-28T09:04:21;2.80;99.90
17728;DHT22;8984;49.268;12.302;2023-02-28T09:06:48;2.50;99.90
17728;DHT22;8984;49.268;12.302;2023-02-28T09:09:15;2.50;99.90
17728;DHT22;8984;49.268;12.302;2023-02-28T09:11:55;2.50;99.90
17728;DHT22;8984;49.268;12.302;2023-02-28T09:14:26;2.40;99.90
17728;DHT22;8984;49.268;12.302;2023-02-28T09:16:53;2.50;99.90
17728;DHT22;8984;49.268;12.302;2023-02-28T09:19:20;2.60;99.90
17728;DHT22;8984;49.268;12.302;2023-02-28T09:21:47;2.50;99.90
17728;DHT22;8984;49.268;12.302;2023-02-28T09:24:14;2.30;99.90
17728;DHT22;8984;49.268;12.302;2023-02-28T09:26:41;2.40;99.90
17728;DHT22;8984;49.268;12.302;2023-02-28T09:29:08;2.50;99.90
17728;DHT22;8984;49.268;12.302;2023-02-28T09:31:37;2.40;99.90
17728;DHT22;8984;49.268;12.302;2023-02-28T09:34:04;2.40;99.90
17728;DHT22;8984;49.268;12.302;2023-02-28T09:36:32;2.40;99.90
17728;DHT22;8984;49.268;12.302;2023-02-28T09:39:00;2.40;99.90
17728;DHT22;8984;49.268;12.302;2023-02-28T09:41:37;2.60;99.90
17728;DHT22;8984;49.268;12.302;2023-02-28T09:44:07;2.70;99.90
17728;DHT22;8984;49.268;12.302;2023-02-28T09:46:42;2.80;99.90
17728;DHT22;8984;49.268;12.302;2023-02-28T09:49:13;2.90;99.90
17728;DHT22;8984;49.268;12.302;2023-02-28T09:51:46;2.80;99.90
17728;DHT22;8984;49.268;12.302;2023-02-28T09:54:17;2.80;99.90
17728;DHT22;8984;49.268;12.302;2023-02-28T09:56:45;3.00;99.90
17728;DHT22;8984;49.268;12.302;2023-02-28T09:59:22;3.00;99.90
17728;DHT22;8984;49.268;12.302;2023-02-28T10:01:57;3.10;99.90
17728;DHT22;8984;49.268;12.302;2023-02-28T10:04:36;3.20;99.90
17728;DHT22;8984;49.268;12.302;2023-02-28T10:07:14;2.90;99.90
17728;DHT22;8984;49.268;12.302;2023-02-28T10:09:45;3.30;99.90
17728;DHT22;8984;49.268;12.302;2023-02-28T10:12:16;3.30;99.90
17728;DHT22;8984;49.268;12.302;2023-02-28T10:14:46;3.40;99.90
17728;DHT22;8984;49.268;12.302;2023-02-28T10:17:18;3.40;99.90
17728;DHT22;8984;49.268;12.302;2023-02-28T10:19:52;3.70;99.90
17728;DHT22;8984;49.268;12.302;2023-02-28T10:22:23;3.70;99.90
17728;DHT22;8984;49.268;12.302;2023-02-28T10:24:52;3.60;99.90
17728;DHT22;8984;49.268;12.302;2023-02-28T10:27:22;3.90;99.90
17728;DHT22;8984;49.268;12.302;2023-02-28T10:29:51;3.70;99.90
17728;DHT22;8984;49.268;12.302;2023-02-28T10:32:23;3.80;99.90
17728;DHT22;8984;49.268;12.302;2023-02-28T10:34:51;4.00;99.90
17728;DHT22;8984;49.268;12.302;2023-02-28T10:37:19;4.10;99.90
17728;DHT22;8984;49.268;12.302;2023-02-28T10:39:47;4.20;99.90
17728;DHT22;8984;49.268;12.302;2023-02-28T10:42:22;4.40;99.90
17728;DHT22;8984;49.268;12.302;2023-02-28T10:45:05;4.20;99.90
17728;DHT22;8984;49.268;12.302;2023-02-28T10:47:34;4.20;99.90
17728;DHT22;8984;49.268;12.302;2023-02-28T10:50:03;4.20;99.90
17728;DHT22;8984;49.268;12.302;2023-02-28T10:52:36;4.70;99.90
17728;DHT22;8984;49.268;12.302;2023-02-28T10:55:15;5.00;99.90
17728;DHT22;8984;49.268;12.302;2023-02-28T10:57:46;5.00;99.90
17728;DHT22;8984;49.268;12.302;2023-02-28T11:00:16;5.20;99.90
17728;DHT22;8984;49.268;12.302;2023-02-28T11:02:45;4.90;99.90
17728;DHT22;8984;49.268;12.302;2023-02-28T11:05:27;4.90;99.90
17728;DHT22;8984;49.268;12.302;2023-02-28T11:07:54;4.90;99.90
17728;DHT22;8984;49.268;12.302;2023-02-28T11:10:25;5.00;99.90
17728;DHT22;8984;49.268;12.302;2023-02-28T11:12:55;4.90;99.90
17728;DHT22;8984;49.268;12.302;2023-02-28T11:15:24;4.70;99.90
17728;DHT22;8984;49.268;12.302;2023-02-28T11:17:58;4.70;99.90
17728;DHT22;8984;49.268;12.302;2023-02-28T11:20:47;4.60;99.90
17728;DHT22;8984;49.268;12.302;2023-02-28T11:23:14;4.90;99.90
17728;DHT22;8984;49.268;12.302;2023-02-28T11:25:47;4.90;99.90
17728;DHT22;8984;49.268;12.302;2023-02-28T11:28:25;5.30;99.90
17728;DHT22;8984;49.268;12.302;2023-02-28T11:31:14;5.40;99.90
17728;DHT22;8984;49.268;12.302;2023-02-28T11:33:45;5.50;99.90
17728;DHT22;8984;49.268;12.302;2023-02-28T11:36:16;5.30;99.90
17728;DHT22;8984;49.268;12.302;2023-02-28T11:38:44;5.40;99.90
17728;DHT22;8984;49.268;12.302;2023-02-28T11:41:30;5.20;99.90
17728;DHT22;8984;49.268;12.302;2023-02-28T11:44:15;5.60;99.90
17728;DHT22;8984;49.268;12.302;2023-02-28T11:46:48;5.60;99.90
17728;DHT22;8984;49.268;12.302;2023-02-28T11:49:29;5.60;99.90
17728;DHT22;8984;49.268;12.302;2023-02-28T11:52:00;5.50;99.90
17728;DHT22;8984;49.268;12.302;2023-02-28T11:54:43;5.40;99.90
17728;DHT22;8984;49.268;12.302;2023-02-28T11:57:27;5.30;99.90
17728;DHT22;8984;49.268;12.302;2023-02-28T12:00:05;5.40;99.90
17728;DHT22;8984;49.268;12.302;2023-02-28T12:02:50;5.60;99.90
17728;DHT22;8984;49.268;12.302;2023-02-28T12:05:28;5.40;99.90
17728;DHT22;8984;49.268;12.302;2023-02-28T12:08:06;5.30;99.90
17728;DHT22;8984;49.268;12.302;2023-02-28T12:10:44;5.40;99.90
17728;DHT22;8984;49.268;12.302;2023-02-28T12:13:20;5.60;99.90
17728;DHT22;8984;49.268;12.302;2023-02-28T12:16:11;5.50;99.90
17728;DHT22;8984;49.268;12.302;2023-02-28T12:19:07;5.70;99.90
17728;DHT22;8984;49.268;12.302;2023-02-28T12:21:53;5.80;99.90
17728;DHT22;8984;49.268;12.302;2023-02-28T12:24:33;6.00;99.90
17728;DHT22;8984;49.268;12.302;2023-02-28T12:27:09;6.00;99.90
17728;DHT22;8984;49.268;12.302;2023-02-28T12:29:43;5.90;99.90
17728;DHT22;8984;49.268;12.302;2023-02-28T12:32:14;5.60;99.90
17728;DHT22;8984;49.268;12.302;2023-02-28T12:34:46;5.60;99.90
17728;DHT22;8984;49.268;12.302;2023-02-28T12:37:19;5.60;99.90
17728;DHT22;8984;49.268;12.302;2023-02-28T12:39:50;5.70;99.90
17728;DHT22;8984;49.268;12.302;2023-02-28T12:42:24;5.60;99.90
17728;DHT22;8984;49.268;12.302;2023-02-28T12:44:58;5.60;99.90
17728;DHT22;8984;49.268;12.302;2023-02-28T12:47:25;5.60;99.90
17728;DHT22;8984;49.268;12.302;2023-02-28T12:49:55;5.70;99.90
17728;DHT22;8984;49.268;12.302;2023-02-28T12:52:34;5.50;99.90
17728;DHT22;8984;49.268;12.302;2023-02-28T12:55:06;5.40;99.90
17728;DHT22;8984;49.268;12.302;2023-02-28T12:57:38;5.40;99.90
17728;DHT22;8984;49.268;12.302;2023-02-28T13:00:13;5.60;99.90
17728;DHT22;8984;49.268;12.302;2023-02-28T13:06:28;5.50;99.90
17728;DHT22;8984;49.268;12.302;2023-02-28T13:09:20;5.50;99.90
17728;DHT22;8984;49.268;12.302;2023-02-28T13:11:48;5.40;99.90
17728;DHT22;8984;49.268;12.302;2023-02-28T13:14:27;5.60;99.90
17728;DHT22;8984;49.268;12.302;2023-02-28T13:17:10;5.30;99.90
17728;DHT22;8984;49.268;12.302;2023-02-28T13:19:40;5.30;99.90
17728;DHT22;8984;49.268;12.302;2023-02-28T13:22:17;5.30;99.90
17728;DHT22;8984;49.268;12.302;2023-02-28T13:24:48;5.20;99.90
17728;DHT22;8984;49.268;12.302;2023-02-28T13:27:34;5.50;99.90
17728;DHT22;8984;49.268;12.302;2023-02-28T13:33:30;5.30;99.90
17728;DHT22;8984;49.268;12.302;2023-02-28T13:36:07;5.50;99.90
17728;DHT22;8984;49.268;12.302;2023-02-28T13:38:39;5.30;99.90
17728;DHT22;8984;49.268;12.302;2023-02-28T13:41:40;5.40;99.90
17728;DHT22;8984;49.268;12.302;2023-02-28T13:44:09;5.50;99.90
17728;DHT22;8984;49.268;12.302;2023-02-28T13:47:15;5.60;99.90
17728;DHT22;8984;49.268;12.302;2023-02-28T13:49:28;5.70;99.90
17728;DHT22;8984;49.268;12.302;2023-02-28T13:52:08;5.50;99.90
17728;DHT22;8984;49.268;12.302;2023-02-28T13:54:56;5.60;99.90
17728;DHT22;8984;49.268;12.302;2023-02-28T13:57:34;5.40;99.90
17728;DHT22;8984;49.268;12.302;2023-02-28T14:00:16;5.40;99.90
17728;DHT22;8984;49.268;12.302;2023-02-28T14:03:07;5.40;99.90
17728;DHT22;8984;49.268;12.302;2023-02-28T14:05:38;5.50;99.90
17728;DHT22;8984;49.268;12.302;2023-02-28T14:08:10;5.60;99.90
17728;DHT22;8984;49.268;12.302;2023-02-28T14:10:44;5.70;99.90
17728;DHT22;8984;49.268;12.302;2023-02-28T14:15:57;5.60;99.90
17728;DHT22;8984;49.268;12.302;2023-02-28T14:18:28;5.50;99.90
17728;DHT22;8984;49.268;12.302;2023-02-28T14:21:10;5.40;99.90
17728;DHT22;8984;49.268;12.302;2023-02-28T14:26:56;5.50;99.90
17728;DHT22;8984;49.268;12.302;2023-02-28T14:29:40;5.50;99.90
17728;DHT22;8984;49.268;12.302;2023-02-28T14:32:15;5.50;99.90
17728;DHT22;8984;49.268;12.302;2023-02-28T14:34:49;5.30;99.90
17728;DHT22;8984;49.268;12.302;2023-02-28T14:37:24;5.30;99.90
17728;DHT22;8984;49.268;12.302;2023-02-28T14:39:53;5.30;99.90
17728;DHT22;8984;49.268;12.302;2023-02-28T14:42:32;5.30;99.90
17728;DHT22;8984;49.268;12.302;2023-02-28T14:44:59;5.50;99.90
17728;DHT22;8984;49.268;12.302;2023-02-28T14:47:28;5.40;99.90
17728;DHT22;8984;49.268;12.302;2023-02-28T14:49:57;5.40;99.90
17728;DHT22;8984;49.268;12.302;2023-02-28T14:52:27;5.50;99.90
17728;DHT22;8984;49.268;12.302;2023-02-28T14:54:56;5.60;99.90
17728;DHT22;8984;49.268;12.302;2023-02-28T14:57:26;5.50;99.90
17728;DHT22;8984;49.268;12.302;2023-02-28T15:00:01;5.50;99.90
17728;DHT22;8984;49.268;12.302;2023-02-28T15:02:33;5.50;99.90
17728;DHT22;8984;49.268;12.302;2023-02-28T15:05:02;5.40;99.90
17728;DHT22;8984;49.268;12.302;2023-02-28T15:07:38;5.40;99.90
17728;DHT22;8984;49.268;12.302;2023-02-28T15:10:20;5.20;99.90
17728;DHT22;8984;49.268;12.302;2023-02-28T15:12:52;5.10;99.90
17728;DHT22;8984;49.268;12.302;2023-02-28T15:15:20;5.00;99.90
17728;DHT22;8984;49.268;12.302;2023-02-28T15:17:51;5.20;99.90
17728;DHT22;8984;49.268;12.302;2023-02-28T15:20:19;5.10;99.90
17728;DHT22;8984;49.268;12.302;2023-02-28T15:22:50;5.00;99.90
17728;DHT22;8984;49.268;12.302;2023-02-28T15:25:20;4.90;99.90
17728;DHT22;8984;49.268;12.302;2023-02-28T15:27:50;4.90;99.90
17728;DHT22;8984;49.268;12.302;2023-02-28T15:30:19;5.10;99.90
17728;DHT22;8984;49.268;12.302;2023-02-28T15:33:06;5.00;99.90
17728;DHT22;8984;49.268;12.302;2023-02-28T15:35:34;4.90;99.90
17728;DHT22;8984;49.268;12.302;2023-02-28T15:38:03;4.80;99.90
17728;DHT22;8984;49.268;12.302;2023-02-28T15:40:42;4.70;99.90
17728;DHT22;8984;49.268;12.302;2023-02-28T15:43:14;4.70;99.90
17728;DHT22;8984;49.268;12.302;2023-02-28T15:45:45;4.70;99.90
17728;DHT22;8984;49.268;12.302;2023-02-28T15:48:20;4.70;99.90
17728;DHT22;8984;49.268;12.302;2023-02-28T15:50:50;4.70;99.90
17728;DHT22;8984;49.268;12.302;2023-02-28T15:53:22;4.80;99.90
17728;DHT22;8984;49.268;12.302;2023-02-28T15:55:55;4.70;99.90
17728;DHT22;8984;49.268;12.302;2023-02-28T15:58:24;4.80;99.90
17728;DHT22;8984;49.268;12.302;2023-02-28T16:01:05;4.70;99.90
17728;DHT22;8984;49.268;12.302;2023-02-28T16:03:40;4.80;99.90
17728;DHT22;8984;49.268;12.302;2023-02-28T16:06:33;4.80;99.90
17728;DHT22;8984;49.268;12.302;2023-02-28T16:09:02;4.80;99.90
17728;DHT22;8984;49.268;12.302;2023-02-28T16:11:29;4.70;99.90
17728;DHT22;8984;49.268;12.302;2023-02-28T16:13:57;4.60;99.90
17728;DHT22;8984;49.268;12.302;2023-02-28T16:16:25;4.60;99.90
17728;DHT22;8984;49.268;12.302;2023-02-28T16:18:53;4.60;99.90
17728;DHT22;8984;49.268;12.302;2023-02-28T16:21:20;4.50;99.90
17728;DHT22;8984;49.268;12.302;2023-02-28T16:23:47;4.40;99.90